Time;durP1;ratioP1;P1;durP2;ratioP2;P2;SDS_P1;SDS_P2;PMS_P1;PMS_P2;Temp;Humidity;BMP_temperature;BMP_pressure;BME280_temperature;BME280_humidity;BME280_pressure;Samples;Min_cycle;Max_cycle;Signal;HPM_P1;HPM_P2
2023/08/22 00:00:45;;;;;;;;;;;;;;;22.96;100.00;96871.16;5044737;28;19967;-75
2023/08/22 00:03:10;;;;;;;;;;;;;;;22.94;100.00;96866.09;5044378;28;19965;-76
2023/08/22 00:05:36;;;;;;;;;;;;;;;22.92;100.00;96865.59;5044423;28;19960;-76
2023/08/22 00:08:05;;;;;;;;;;;;;;;22.90;100.00;96875.78;5044398;28;19959;-75
2023/08/22 00:10:31;;;;;;;;;;;;;;;22.86;100.00;96872.88;5044464;28;19950;-76
2023/08/22 00:12:57;;;;;;;;;;;;;;;22.84;100.00;96869.69;5044485;28;19957;-76
2023/08/22 00:15:23;;;;;;;;;;;;;;;22.81;100.00;96867.59;5044530;28;20007;-74
2023/08/22 00:17:50;;;;;;;;;;;;;;;22.80;100.00;96867.88;5026713;28;20023;-75
2023/08/22 00:20:16;;;;;;;;;;;;;;;22.77;100.00;96863.91;5045003;28;20313;-74
2023/08/22 00:22:42;;;;;;;;;;;;;;;22.77;100.00;96863.13;5026804;28;19962;-75
2023/08/22 00:25:09;;;;;;;;;;;;;;;22.75;100.00;96855.38;5044414;28;19955;-75
2023/08/22 00:27:35;;;;;;;;;;;;;;;22.74;100.00;96856.47;5044095;28;19955;-75
2023/08/22 00:30:02;;;;;;;;;;;;;;;22.72;100.00;96855.13;5044088;28;19954;-75
2023/08/22 00:32:28;;;;;;;;;;;;;;;22.71;100.00;96857.03;5026990;28;19973;-70
2023/08/22 00:34:54;;;;;;;;;;;;;;;22.70;100.00;96858.13;5044545;28;19958;-89
2023/08/22 00:37:19;;;;;;;;;;;;;;;22.69;100.00;96856.50;5044092;28;19965;-89
2023/08/22 00:39:45;;;;;;;;;;;;;;;22.67;100.00;96853.34;5044126;28;19957;-89
2023/08/22 00:42:11;;;;;;;;;;;;;;;22.64;100.00;96854.69;5044267;28;19968;-90
2023/08/22 00:44:37;;;;;;;;;;;;;;;22.66;100.00;96854.44;5044263;28;19996;-90
2023/08/22 00:47:03;;;;;;;;;;;;;;;22.63;100.00;96853.09;5043842;28;20005;-89
2023/08/22 00:49:30;;;;;;;;;;;;;;;22.61;100.00;96857.13;5044334;28;20263;-72
2023/08/22 00:51:58;;;;;;;;;;;;;;;22.59;100.00;96848.59;5044305;28;19959;-72
2023/08/22 00:54:25;;;;;;;;;;;;;;;22.55;100.00;96852.94;5044209;28;19957;-72
2023/08/22 00:56:51;;;;;;;;;;;;;;;22.53;100.00;96861.22;5043829;28;19966;-72
2023/08/22 00:59:16;;;;;;;;;;;;;;;22.52;100.00;96856.97;5045383;28;19949;-73
2023/08/22 01:01:42;;;;;;;;;;;;;;;22.51;100.00;96855.41;5048024;28;19965;-73
2023/08/22 01:04:08;;;;;;;;;;;;;;;22.49;100.00;96847.66;5048022;28;19983;-72
2023/08/22 01:06:37;;;;;;;;;;;;;;;22.47;100.00;96846.34;5047718;28;20006;-72
2023/08/22 01:09:14;;;;;;;;;;;;;;;22.44;100.00;96847.69;5047427;28;19962;-76
2023/08/22 01:11:41;;;;;;;;;;;;;;;22.41;100.00;96837.59;5048032;28;19954;-70
2023/08/22 01:14:09;;;;;;;;;;;;;;;22.39;100.00;96850.44;5047743;28;19955;-71
2023/08/22 01:16:35;;;;;;;;;;;;;;;22.36;100.00;96836.84;5047818;28;20281;-70
2023/08/22 01:19:03;;;;;;;;;;;;;;;22.34;100.00;96837.13;5047746;28;20156;-70
2023/08/22 01:21:29;;;;;;;;;;;;;;;22.31;100.00;96828.91;5047863;28;20229;-70
2023/08/22 01:23:55;;;;;;;;;;;;;;;22.25;100.00;96834.28;5048066;28;20022;-70
2023/08/22 01:26:22;;;;;;;;;;;;;;;22.22;100.00;96839.38;5047251;28;20254;-70
2023/08/22 01:28:52;;;;;;;;;;;;;;;22.19;100.00;96832.69;5047664;28;19952;-75
2023/08/22 01:31:27;;;;;;;;;;;;;;;22.17;100.00;96842.09;5047734;28;19959;-74
2023/08/22 01:33:56;;;;;;;;;;;;;;;22.14;100.00;96829.31;5029700;28;19965;-75
2023/08/22 01:36:23;;;;;;;;;;;;;;;22.10;100.00;96837.88;5047324;28;19957;-74
2023/08/22 01:38:49;;;;;;;;;;;;;;;22.08;100.00;96847.25;5046808;28;19956;-74
2023/08/22 01:41:15;;;;;;;;;;;;;;;22.05;100.00;96837.94;5047300;28;19961;-74
2023/08/22 01:43:45;;;;;;;;;;;;;;;22.02;100.00;96841.16;5047337;28;19964;-75
2023/08/22 01:46:11;;;;;;;;;;;;;;;21.99;100.00;96831.03;5046784;28;19938;-72
2023/08/22 01:48:36;;;;;;;;;;;;;;;21.97;100.00;96832.41;5047014;28;19954;-72
2023/08/22 01:51:02;;;;;;;;;;;;;;;21.93;100.00;96832.16;5047151;28;19995;-72
2023/08/22 01:53:28;;;;;;;;;;;;;;;21.90;100.00;96840.72;5046721;28;19956;-73
2023/08/22 01:56:01;;;;;;;;;;;;;;;21.87;100.00;96830.63;5046725;28;19955;-72
2023/08/22 01:58:27;;;;;;;;;;;;;;;21.84;100.00;96826.66;5046460;28;20156;-72
2023/08/22 02:00:53;;;;;;;;;;;;;;;21.81;100.00;96829.06;5046886;28;20300;-72
2023/08/22 02:03:19;;;;;;;;;;;;;;;21.77;100.00;96826.16;5046783;28;20026;-73
2023/08/22 02:05:45;;;;;;;;;;;;;;;21.76;100.00;96834.47;5046842;28;19960;-70
2023/08/22 02:08:11;;;;;;;;;;;;;;;21.73;100.00;96827.78;5046881;28;19951;-70
2023/08/22 02:10:37;;;;;;;;;;;;;;;21.71;100.00;96829.94;5046548;28;19959;-70
2023/08/22 02:13:03;;;;;;;;;;;;;;;21.67;100.00;96832.41;5046753;28;19956;-70
2023/08/22 02:15:29;;;;;;;;;;;;;;;21.63;100.00;96825.22;5046198;28;19951;-70
2023/08/22 02:17:55;;;;;;;;;;;;;;;21.61;100.00;96827.38;5046590;28;20277;-69
2023/08/22 02:20:22;;;;;;;;;;;;;;;21.60;100.00;96820.44;5046524;28;19962;-69
2023/08/22 02:22:48;;;;;;;;;;;;;;;21.57;100.00;96821.81;5046250;28;19960;-70
2023/08/22 02:25:14;;;;;;;;;;;;;;;21.56;100.00;96816.72;5046223;28;19957;-89
2023/08/22 02:27:39;;;;;;;;;;;;;;;21.55;100.00;96817.81;5046226;28;19938;-89
2023/08/22 02:30:09;;;;;;;;;;;;;;;21.53;100.00;96812.75;5046289;28;19952;-89
2023/08/22 02:32:36;;;;;;;;;;;;;;;21.53;100.00;96817.31;5046264;28;19953;-88
2023/08/22 02:35:03;;;;;;;;;;;;;;;21.52;100.00;96818.38;5046273;28;19958;-88
2023/08/22 02:37:29;;;;;;;;;;;;;;;21.50;100.00;96823.97;5046179;28;19963;-88
2023/08/22 02:39:55;;;;;;;;;;;;;;;21.48;100.00;96820.78;5046171;28;19958;-75
2023/08/22 02:42:22;;;;;;;;;;;;;;;21.46;100.00;96812.25;5028250;28;19957;-72
2023/08/22 02:44:48;;;;;;;;;;;;;;;21.43;100.00;96812.84;5046179;28;19945;-72
2023/08/22 02:47:15;;;;;;;;;;;;;;;21.40;100.00;96816.03;5045572;28;19953;-73
2023/08/22 02:49:40;;;;;;;;;;;;;;;21.39;100.00;96817.09;5046096;28;20221;-72
2023/08/22 02:52:06;;;;;;;;;;;;;;;21.35;100.00;96819.53;5046137;28;19994;-73
2023/08/22 02:54:32;;;;;;;;;;;;;;;21.35;100.00;96827.53;5045700;28;19995;-72
2023/08/22 02:56:58;;;;;;;;;;;;;;;21.33;100.00;96820.88;5046118;28;19959;-72
2023/08/22 02:59:24;;;;;;;;;;;;;;;21.31;100.00;96823.03;5045683;28;19953;-74
2023/08/22 03:01:50;;;;;;;;;;;;;;;21.27;100.00;96815.59;5045622;28;19946;-70
2023/08/22 03:04:15;;;;;;;;;;;;;;;21.24;100.00;96818.78;5045848;28;19957;-70
2023/08/22 03:06:41;;;;;;;;;;;;;;;21.23;100.00;96816.41;5045677;28;19963;-69
2023/08/22 03:09:07;;;;;;;;;;;;;;;21.21;100.00;96815.91;5045162;28;19937;-70
2023/08/22 03:11:33;;;;;;;;;;;;;;;21.18;100.00;96819.09;5045614;28;19954;-70
2023/08/22 03:13:59;;;;;;;;;;;;;;;21.15;100.00;96827.69;5045052;28;19939;-70
2023/08/22 03:16:25;;;;;;;;;;;;;;;21.12;100.00;96812.22;5045592;28;19967;-76
2023/08/22 03:18:50;;;;;;;;;;;;;;;21.09;100.00;96822.34;5045554;28;19950;-72
2023/08/22 03:21:16;;;;;;;;;;;;;;;21.06;100.00;96809.59;5044851;28;19963;-76
2023/08/22 03:23:42;;;;;;;;;;;;;;;21.05;100.00;96821.31;5044717;28;19958;-76
2023/08/22 03:26:10;;;;;;;;;;;;;;;21.06;100.00;96827.44;5045352;28;19953;-76
2023/08/22 03:28:37;;;;;;;;;;;;;;;21.04;100.00;96825.06;5045342;28;20134;-76
2023/08/22 03:31:02;;;;;;;;;;;;;;;21.01;100.00;96825.59;5045425;28;19961;-76
2023/08/22 03:33:29;;;;;;;;;;;;;;;20.98;100.00;96812.84;5045093;28;19963;-76
2023/08/22 03:35:56;;;;;;;;;;;;;;;20.98;100.00;96817.38;5045316;28;19998;-76
2023/08/22 03:38:22;;;;;;;;;;;;;;;20.95;100.00;96818.69;5044625;28;19963;-72
2023/08/22 03:40:48;;;;;;;;;;;;;;;20.92;100.00;96813.16;5044998;28;19960;-72
2023/08/22 03:43:20;;;;;;;;;;;;;;;20.90;100.00;96812.63;5045017;28;19965;-73
2023/08/22 03:45:46;;;;;;;;;;;;;;;20.87;100.00;96805.94;5027069;28;19960;-72
2023/08/22 03:48:12;;;;;;;;;;;;;;;20.85;100.00;96814.25;5045028;28;19957;-73
2023/08/22 03:50:39;;;;;;;;;;;;;;;20.81;100.00;96810.53;5045001;28;19955;-72
2023/08/22 03:53:06;;;;;;;;;;;;;;;20.81;100.00;96809.72;5044641;28;19959;-72
2023/08/22 03:55:31;;;;;;;;;;;;;;;20.80;100.00;96811.59;5044774;28;19956;-70
2023/08/22 03:57:58;;;;;;;;;;;;;;;20.79;100.00;96817.19;5044562;28;19952;-92
2023/08/22 04:00:24;;;;;;;;;;;;;;;20.75;100.00;96816.97;5045386;28;19963;-93
2023/08/22 04:02:58;;;;;;;;;;;;;;;20.72;100.00;96808.69;5045077;28;19957;-92
2023/08/22 04:05:24;;;;;;;;;;;;;;;20.71;100.00;96801.78;5045091;28;19957;-92
2023/08/22 04:07:50;;;;;;;;;;;;;;;20.68;100.00;96811.94;5045155;28;20134;-92
2023/08/22 04:10:16;;;;;;;;;;;;;;;20.66;100.00;96814.06;5045121;28;19946;-92
2023/08/22 04:12:42;;;;;;;;;;;;;;;20.66;100.00;96813.25;5044656;28;20130;-74
2023/08/22 04:15:09;;;;;;;;;;;;;;;20.62;100.00;96813.03;5026913;28;19949;-76
2023/08/22 04:17:35;;;;;;;;;;;;;;;20.61;100.00;96819.41;5044335;28;20237;-75
2023/08/22 04:20:03;;;;;;;;;;;;;;;20.59;100.00;96821.53;5044601;28;19956;-75
2023/08/22 04:22:30;;;;;;;;;;;;;;;20.59;100.00;96832.19;5044486;28;19974;-76
2023/08/22 04:24:56;;;;;;;;;;;;;;;20.57;100.00;96833.53;5044342;28;19951;-75
2023/08/22 04:27:22;;;;;;;;;;;;;;;20.54;100.00;96834.09;5044006;28;20138;-75
2023/08/22 04:29:48;;;;;;;;;;;;;;;20.52;100.00;96836.22;5044448;28;19995;-75
2023/08/22 04:32:14;;;;;;;;;;;;;;;20.48;100.00;96836.75;5044582;28;20233;-71
2023/08/22 04:34:40;;;;;;;;;;;;;;;20.46;100.00;96835.44;5030035;28;19955;-71
2023/08/22 04:37:06;;;;;;;;;;;;;;;20.44;100.00;96840.22;5048502;28;19958;-72
2023/08/22 04:39:31;;;;;;;;;;;;;;;20.43;100.00;96838.63;5048019;28;20123;-72
2023/08/22 04:41:57;;;;;;;;;;;;;;;20.43;100.00;96844.78;5048382;28;19966;-72
2023/08/22 04:44:23;;;;;;;;;;;;;;;20.43;100.00;96841.28;5048020;28;19952;-72
2023/08/22 04:46:49;;;;;;;;;;;;;;;20.41;100.00;96846.09;5048279;28;19958;-71
2023/08/22 04:49:15;;;;;;;;;;;;;;;20.40;100.00;96847.97;5048430;28;19953;-73
2023/08/22 04:51:41;;;;;;;;;;;;;;;20.39;100.00;96846.38;5048288;28;19962;-72
2023/08/22 04:54:07;;;;;;;;;;;;;;;20.38;100.00;96846.63;5048021;28;19957;-72
2023/08/22 04:56:33;;;;;;;;;;;;;;;20.36;100.00;96838.91;5030155;28;19957;-72
2023/08/22 04:58:59;;;;;;;;;;;;;;;20.36;100.00;96843.44;5048052;28;19961;-72
2023/08/22 05:01:24;;;;;;;;;;;;;;;20.36;100.00;96846.09;5047944;28;20002;-72
2023/08/22 05:03:50;;;;;;;;;;;;;;;20.37;100.00;96853.03;5048179;28;19960;-72
2023/08/22 05:06:16;;;;;;;;;;;;;;;20.43;100.00;96846.59;5048263;28;19948;-73
2023/08/22 05:08:42;;;;;;;;;;;;;;;20.48;100.00;96849.28;5047959;28;20236;-72
2023/08/22 05:11:08;;;;;;;;;;;;;;;20.55;100.00;96849.78;5047510;28;20212;-74
2023/08/22 05:13:34;;;;;;;;;;;;;;;20.63;100.00;96846.56;5030329;28;19958;-74
2023/08/22 05:16:00;;;;;;;;;;;;;;;20.71;100.00;96845.22;5047238;28;19957;-75
2023/08/22 05:18:25;;;;;;;;;;;;;;;20.81;100.00;96858.50;5047487;28;19991;-75
2023/08/22 05:20:52;;;;;;;;;;;;;;;20.93;100.00;96855.50;5047411;28;19966;-74
2023/08/22 05:23:17;;;;;;;;;;;;;;;21.05;100.00;96850.66;5047441;28;20250;-74
2023/08/22 05:25:43;;;;;;;;;;;;;;;21.22;100.00;96854.84;5047488;28;19955;-72
2023/08/22 05:28:09;;;;;;;;;;;;;;;21.38;100.00;96861.66;5047637;28;19954;-72
2023/08/22 05:30:38;;;;;;;;;;;;;;;21.58;100.00;96857.28;5047443;28;19990;-72
2023/08/22 05:33:05;;;;;;;;;;;;;;;21.82;100.00;96857.38;5047544;28;20219;-72
2023/08/22 05:35:31;;;;;;;;;;;;;;;22.09;100.00;96846.97;5047533;28;19962;-73
2023/08/22 05:37:56;;;;;;;;;;;;;;;22.40;100.00;96852.00;5046800;28;19960;-73
2023/08/22 05:40:22;;;;;;;;;;;;;;;22.73;100.00;96840.69;5047092;28;19947;-73
2023/08/22 05:42:49;;;;;;;;;;;;;;;23.04;100.00;96833.91;5047551;28;19962;-72
2023/08/22 05:45:15;;;;;;;;;;;;;;;23.39;100.00;96833.66;5046908;28;19962;-73
2023/08/22 05:47:42;;;;;;;;;;;;;;;23.71;100.00;96839.06;5047280;28;19961;-90
2023/08/22 05:50:08;;;;;;;;;;;;;;;24.03;100.00;96834.78;5047252;28;20256;-90
2023/08/22 05:52:34;;;;;;;;;;;;;;;24.31;100.00;96824.88;5029255;28;20249;-90
2023/08/22 05:54:59;;;;;;;;;;;;;;;24.60;99.92;96820.38;5047174;28;19994;-90
2023/08/22 05:57:25;;;;;;;;;;;;;;;24.86;98.17;96816.06;5029079;28;19959;-89
2023/08/22 05:59:51;;;;;;;;;;;;;;;25.10;96.57;96809.66;5047012;28;19974;-89
2023/08/22 06:02:17;;;;;;;;;;;;;;;25.33;95.30;96807.03;5046876;28;20229;-75
2023/08/22 06:04:44;;;;;;;;;;;;;;;25.53;95.07;96814.56;5046960;28;20246;-75
2023/08/22 06:07:10;;;;;;;;;;;;;;;25.68;95.10;96808.84;5046948;28;19953;-88
2023/08/22 06:09:35;;;;;;;;;;;;;;;25.71;93.62;96802.84;5046859;28;19941;-87
2023/08/22 06:12:01;;;;;;;;;;;;;;;25.80;92.31;96802.91;5046436;28;19958;-87
2023/08/22 06:14:27;;;;;;;;;;;;;;;25.85;92.26;96799.28;5046770;28;19950;-87
2023/08/22 06:16:53;;;;;;;;;;;;;;;25.82;89.65;96795.31;5046392;28;19961;-87
2023/08/22 06:19:19;;;;;;;;;;;;;;;25.89;91.40;96802.97;5046356;28;20115;-88
2023/08/22 06:21:45;;;;;;;;;;;;;;;25.99;91.51;96810.78;5046221;28;20008;-72
2023/08/22 06:24:11;;;;;;;;;;;;;;;26.12;91.05;96811.78;5046357;28;19957;-93
2023/08/22 06:26:37;;;;;;;;;;;;;;;26.22;89.34;96803.44;5046552;28;19998;-92
2023/08/22 06:29:03;;;;;;;;;;;;;;;26.26;87.85;96799.03;5046616;28;20024;-92
2023/08/22 06:31:29;;;;;;;;;;;;;;;26.24;87.50;96795.84;5046620;28;20226;-92
2023/08/22 06:33:55;;;;;;;;;;;;;;;26.21;87.55;96801.88;5046627;28;19997;-92
2023/08/22 06:36:21;;;;;;;;;;;;;;;26.23;88.54;96804.25;5046705;28;19954;-90
2023/08/22 06:38:47;;;;;;;;;;;;;;;26.31;88.79;96814.22;5012902;28;19962;-93
2023/08/22 06:41:12;;;;;;;;;;;;;;;26.36;90.82;96821.38;5028947;28;19972;-73
2023/08/22 06:43:39;;;;;;;;;;;;;;;26.43;89.41;96814.44;5045872;28;19984;-72
2023/08/22 06:46:04;;;;;;;;;;;;;;;26.50;89.32;96814.78;5045771;28;19965;-72
2023/08/22 06:48:30;;;;;;;;;;;;;;;26.56;89.31;96817.31;5045868;28;19959;-72
2023/08/22 06:50:56;;;;;;;;;;;;;;;26.61;88.78;96809.94;5045793;28;19958;-72
2023/08/22 06:53:22;;;;;;;;;;;;;;;26.63;89.15;96809.63;5046181;28;19956;-72
2023/08/22 06:55:48;;;;;;;;;;;;;;;26.62;88.31;96808.81;5045727;28;19965;-72
2023/08/22 06:58:14;;;;;;;;;;;;;;;26.65;89.65;96815.50;5044857;28;19957;-89
2023/08/22 07:00:42;;;;;;;;;;;;;;;26.69;88.23;96813.72;5046091;28;19968;-75
2023/08/22 07:03:08;;;;;;;;;;;;;;;26.67;86.51;96805.22;5045926;28;19951;-74
2023/08/22 07:05:34;;;;;;;;;;;;;;;26.73;88.06;96809.31;5045876;28;19967;-75
2023/08/22 07:08:00;;;;;;;;;;;;;;;26.75;88.93;96817.06;5045211;28;19954;-76
2023/08/22 07:10:26;;;;;;;;;;;;;;;26.82;88.98;96818.22;5045213;28;20034;-75
2023/08/22 07:12:52;;;;;;;;;;;;;;;26.94;87.65;96809.50;5045666;28;19952;-75
2023/08/22 07:15:18;;;;;;;;;;;;;;;27.02;83.48;96792.56;5045233;28;19959;-75
2023/08/22 07:17:44;;;;;;;;;;;;;;;27.05;85.98;96805.41;5045669;28;20030;-72
2023/08/22 07:20:10;;;;;;;;;;;;;;;26.97;84.35;96795.44;5045410;28;19958;-72
2023/08/22 07:22:36;;;;;;;;;;;;;;;26.91;85.48;96810.16;5045275;28;19967;-72
2023/08/22 07:25:02;;;;;;;;;;;;;;;26.93;87.66;96821.41;5045215;28;20254;-72
2023/08/22 07:27:27;;;;;;;;;;;;;;;26.96;86.15;96807.28;5045093;28;20019;-72
2023/08/22 07:29:54;;;;;;;;;;;;;;;27.01;87.63;96817.13;5045369;28;19997;-72
2023/08/22 07:32:20;;;;;;;;;;;;;;;27.11;88.34;96828.38;5045416;28;19960;-72
2023/08/22 07:34:47;;;;;;;;;;;;;;;27.23;87.57;96813.53;5045314;28;19978;-70
2023/08/22 07:37:13;;;;;;;;;;;;;;;27.30;85.75;96819.25;5045139;28;20268;-73
2023/08/22 07:39:39;;;;;;;;;;;;;;;27.31;85.86;96816.22;5044702;28;19946;-72
2023/08/22 07:42:05;;;;;;;;;;;;;;;27.31;86.80;96818.13;5044647;28;19969;-73
2023/08/22 07:44:31;;;;;;;;;;;;;;;27.40;85.98;96812.72;5044711;28;19953;-72
2023/08/22 07:46:57;;;;;;;;;;;;;;;27.42;82.66;96802.44;5044480;28;19963;-72
2023/08/22 07:49:24;;;;;;;;;;;;;;;27.53;85.29;96809.09;5044602;28;19953;-73
2023/08/22 07:51:50;;;;;;;;;;;;;;;27.63;81.69;96795.25;5044828;28;19958;-72
2023/08/22 07:54:15;;;;;;;;;;;;;;;27.76;80.10;96781.91;5044969;28;19953;-73
2023/08/22 07:56:41;;;;;;;;;;;;;;;27.86;80.69;96787.00;5044746;28;19955;-73
2023/08/22 07:59:07;;;;;;;;;;;;;;;27.80;77.63;96772.09;5044756;28;19953;-72
2023/08/22 08:01:36;;;;;;;;;;;;;;;27.85;79.30;96788.88;5044671;28;19964;-72
2023/08/22 08:04:02;;;;;;;;;;;;;;;27.96;83.97;96818.22;5045108;28;19957;-72
2023/08/22 08:06:31;;;;;;;;;;;;;;;28.00;81.62;96800.28;5044695;28;19962;-73
2023/08/22 08:08:57;;;;;;;;;;;;;;;28.04;80.54;96788.53;5043993;28;19965;-72
2023/08/22 08:11:23;;;;;;;;;;;;;;;28.11;80.34;96786.13;5044314;28;19961;-70
2023/08/22 08:13:49;;;;;;;;;;;;;;;28.06;79.53;96786.31;5045114;28;19969;-76
2023/08/22 08:16:16;;;;;;;;;;;;;;;28.08;82.49;96804.88;5044656;28;19958;-77
2023/08/22 08:18:42;;;;;;;;;;;;;;;28.16;81.88;96803.22;5044294;28;20127;-78
2023/08/22 08:21:07;;;;;;;;;;;;;;;28.25;79.79;96796.69;5044520;28;19954;-77
2023/08/22 08:23:33;;;;;;;;;;;;;;;28.31;80.31;96805.41;5044673;28;19996;-77
2023/08/22 08:26:00;;;;;;;;;;;;;;;28.33;78.03;96785.09;5044535;28;20035;-77
2023/08/22 08:28:26;;;;;;;;;;;;;;;28.31;78.15;96783.81;5044416;28;19950;-77
2023/08/22 08:30:52;;;;;;;;;;;;;;;28.29;78.45;96786.84;5044568;28;19959;-70
2023/08/22 08:33:18;;;;;;;;;;;;;;;28.36;78.20;96791.72;5044533;28;19956;-77
2023/08/22 08:35:44;;;;;;;;;;;;;;;28.39;79.27;96788.41;5044394;28;20123;-76
2023/08/22 08:38:10;;;;;;;;;;;;;;;28.54;79.95;96798.66;5044286;28;19956;-77
2023/08/22 08:40:36;;;;;;;;;;;;;;;28.67;79.31;96793.34;5044458;28;19955;-77
2023/08/22 08:43:03;;;;;;;;;;;;;;;28.79;77.87;96788.03;5043935;28;19959;-77
2023/08/22 08:45:30;;;;;;;;;;;;;;;28.84;73.22;96760.03;5044011;28;19962;-77
2023/08/22 08:47:57;;;;;;;;;;;;;;;28.86;76.59;96779.41;5044049;28;19958;-77
2023/08/22 08:50:23;;;;;;;;;;;;;;;28.81;74.63;96766.91;5044324;28;19960;-89
2023/08/22 08:52:49;;;;;;;;;;;;;;;28.86;75.30;96776.72;5044103;28;20142;-72
2023/08/22 08:55:15;;;;;;;;;;;;;;;28.91;76.41;96781.91;5044374;28;19957;-72
2023/08/22 08:57:41;;;;;;;;;;;;;;;28.94;70.53;96759.66;5043940;28;19961;-72
2023/08/22 09:00:07;;;;;;;;;;;;;;;28.97;71.74;96796.00;5044327;28;19957;-72
2023/08/22 09:02:33;;;;;;;;;;;;;;;29.01;70.23;96795.00;5044126;28;20279;-72
2023/08/22 09:04:59;;;;;;;;;;;;;;;28.99;71.68;96810.75;5026296;28;19963;-73
2023/08/22 09:07:25;;;;;;;;;;;;;;;29.00;71.93;96816.94;5043722;28;20231;-74
2023/08/22 09:09:51;;;;;;;;;;;;;;;29.04;74.69;96817.84;5026327;28;19966;-70
2023/08/22 09:12:16;;;;;;;;;;;;;;;29.14;72.51;96812.88;5043718;28;19953;-70
2023/08/22 09:14:46;;;;;;;;;;;;;;;29.24;72.07;96809.00;5044298;28;19962;-70
2023/08/22 09:17:13;;;;;;;;;;;;;;;29.28;73.83;96815.31;5043971;28;19955;-71
2023/08/22 09:19:39;;;;;;;;;;;;;;;29.36;72.90;96805.56;5044054;28;19959;-70
2023/08/22 09:22:05;;;;;;;;;;;;;;;29.41;70.92;96804.56;5047359;28;19973;-70
2023/08/22 09:24:31;;;;;;;;;;;;;;;29.43;71.72;96803.13;5047512;28;20020;-72
2023/08/22 09:26:57;;;;;;;;;;;;;;;29.48;71.01;96797.53;5029784;28;19954;-72
2023/08/22 09:29:30;;;;;;;;;;;;;;;29.49;72.64;96809.91;5047554;28;19965;-70
2023/08/22 09:32:05;;;;;;;;;;;;;;;29.56;69.50;96793.13;5048055;28;19957;-70
2023/08/22 09:34:32;;;;;;;;;;;;;;;29.62;71.43;96791.81;5046780;28;19960;-70
2023/08/22 09:36:57;;;;;;;;;;;;;;;29.70;70.68;96787.47;5047234;28;19956;-70
2023/08/22 09:39:24;;;;;;;;;;;;;;;29.74;70.45;96791.09;5047134;28;19958;-70
2023/08/22 09:41:53;;;;;;;;;;;;;;;29.67;66.72;96770.00;5045954;28;21092;-70
2023/08/22 09:44:21;;;;;;;;;;;;;;;29.70;70.61;96799.06;5047132;28;19960;-77
2023/08/22 09:46:48;;;;;;;;;;;;;;;29.79;70.60;96790.88;5047358;28;19961;-78
2023/08/22 09:49:18;;;;;;;;;;;;;;;29.84;69.51;96787.16;5047021;28;20115;-78
2023/08/22 09:51:44;;;;;;;;;;;;;;;29.96;71.10;96800.69;5046837;28;19966;-78
2023/08/22 09:54:11;;;;;;;;;;;;;;;30.03;68.67;96789.31;5047034;28;19957;-78
2023/08/22 09:56:37;;;;;;;;;;;;;;;30.07;69.93;96790.22;5047143;28;19942;-77
2023/08/22 09:59:03;;;;;;;;;;;;;;;30.17;69.50;96792.50;5046482;28;19979;-77
2023/08/22 10:01:29;;;;;;;;;;;;;;;30.25;69.83;96788.13;5046778;28;19945;-72
2023/08/22 10:03:56;;;;;;;;;;;;;;;30.30;70.32;96790.63;5046599;28;19960;-73
2023/08/22 10:06:31;;;;;;;;;;;;;;;30.38;68.73;96788.94;5046934;28;19962;-72
2023/08/22 10:08:57;;;;;;;;;;;;;;;30.41;66.84;96775.53;5046619;28;20143;-73
2023/08/22 10:11:26;;;;;;;;;;;;;;;30.44;67.56;96780.25;5046533;28;19963;-74
2023/08/22 10:13:52;;;;;;;;;;;;;;;30.50;66.38;96775.41;5046436;28;19953;-72
2023/08/22 10:16:18;;;;;;;;;;;;;;;30.55;67.16;96780.56;5046686;28;20140;-73
2023/08/22 10:18:44;;;;;;;;;;;;;;;30.63;67.21;96779.66;5046159;28;19964;-72
2023/08/22 10:21:11;;;;;;;;;;;;;;;30.72;68.05;96782.25;5028758;28;19957;-73
2023/08/22 10:23:51;;;;;;;;;;;;;;;30.82;68.10;96767.47;5046536;28;19964;-87
2023/08/22 10:26:21;;;;;;;;;;;;;;;30.95;65.44;96769.84;5046571;28;19964;-88
2023/08/22 10:29:06;;;;;;;;;;;;;;;31.08;65.66;96767.06;5028526;28;20267;-89
2023/08/22 10:31:51;;;;;;;;;;;;;;;31.20;66.86;96769.75;5046091;28;20133;-88
2023/08/22 10:34:17;;;;;;;;;;;;;;;31.34;67.13;96775.56;5046183;28;19958;-88
2023/08/22 10:36:56;;;;;;;;;;;;;;;31.34;67.18;96772.84;5046260;28;19969;-88
2023/08/22 10:39:38;;;;;;;;;;;;;;;31.40;66.77;96767.97;5045788;28;20134;-73
2023/08/22 10:42:04;;;;;;;;;;;;;;;31.53;64.00;96763.31;5046481;28;20153;-72
2023/08/22 10:44:30;;;;;;;;;;;;;;;31.71;65.03;96767.28;5045787;28;19955;-72
2023/08/22 10:46:59;;;;;;;;;;;;;;;31.89;64.20;96754.16;5045797;28;19954;-72
2023/08/22 10:49:32;;;;;;;;;;;;;;;32.01;64.34;96757.97;5045818;28;19958;-73
2023/08/22 10:52:08;;;;;;;;;;;;;;;32.05;62.45;96756.91;5045810;28;19964;-72
2023/08/22 10:54:53;;;;;;;;;;;;;;;32.04;63.02;96758.03;5046013;28;19976;-72
2023/08/22 10:57:19;;;;;;;;;;;;;;;32.13;61.89;96741.59;5045749;28;19977;-87
2023/08/22 11:00:12;;;;;;;;;;;;;;;32.23;63.03;96745.69;5045424;28;20258;-73
2023/08/22 11:02:39;;;;;;;;;;;;;;;32.44;62.21;96745.41;5041979;28;20059;-74
2023/08/22 11:05:13;;;;;;;;;;;;;;;32.60;60.63;96742.69;5045797;28;19956;-75
2023/08/22 11:07:40;;;;;;;;;;;;;;;32.78;61.71;96743.06;5045476;28;19958;-75
2023/08/22 11:10:12;;;;;;;;;;;;;;;32.82;57.79;96738.47;5045477;28;20239;-74
2023/08/22 11:12:38;;;;;;;;;;;;;;;32.70;57.82;96742.91;5045580;28;19955;-74
2023/08/22 11:15:04;;;;;;;;;;;;;;;32.49;60.86;96751.34;5045663;28;19963;-77
2023/08/22 11:17:30;;;;;;;;;;;;;;;32.40;60.52;96758.09;5045559;28;19962;-79
2023/08/22 11:19:57;;;;;;;;;;;;;;;32.29;61.90;96763.28;5044967;28;19950;-73
2023/08/22 11:22:23;;;;;;;;;;;;;;;32.36;61.25;96756.09;5045390;28;19965;-74
2023/08/22 11:24:50;;;;;;;;;;;;;;;32.50;61.57;96757.56;5045003;28;19957;-72
2023/08/22 11:27:17;;;;;;;;;;;;;;;32.41;59.89;96741.47;5045027;28;19999;-74
2023/08/22 11:29:49;;;;;;;;;;;;;;;32.29;61.92;96752.44;5045367;28;19970;-73
2023/08/22 11:32:22;;;;;;;;;;;;;;;32.21;58.09;96739.81;5044942;28;19948;-74
2023/08/22 11:34:52;;;;;;;;;;;;;;;32.18;60.20;96745.97;5045260;28;19959;-73
2023/08/22 11:37:18;;;;;;;;;;;;;;;32.33;60.91;96747.88;5045017;28;19954;-90
2023/08/22 11:39:54;;;;;;;;;;;;;;;32.56;59.71;96735.22;5044877;28;20140;-90
2023/08/22 11:42:20;;;;;;;;;;;;;;;32.80;59.64;96738.06;5044981;28;20299;-92
2023/08/22 11:45:05;;;;;;;;;;;;;;;32.96;56.53;96733.34;5044789;28;19980;-90
2023/08/22 11:47:46;;;;;;;;;;;;;;;33.17;59.12;96741.16;5044710;28;19966;-91
2023/08/22 11:50:14;;;;;;;;;;;;;;;33.40;55.38;96733.06;5044743;28;20141;-91
2023/08/22 11:52:41;;;;;;;;;;;;;;;33.63;57.47;96735.84;5044895;28;19963;-90
2023/08/22 11:55:07;;;;;;;;;;;;;;;33.89;58.32;96732.41;5044806;28;20132;-89
2023/08/22 11:57:34;;;;;;;;;;;;;;;33.86;57.63;96733.13;5044945;28;19960;-88
2023/08/22 12:00:01;;;;;;;;;;;;;;;33.68;57.46;96735.56;5044434;28;19958;-89
2023/08/22 12:02:27;;;;;;;;;;;;;;;33.73;60.16;96742.63;5044670;28;20117;-89
2023/08/22 12:04:55;;;;;;;;;;;;;;;33.69;54.58;96725.47;5044793;28;19962;-88
2023/08/22 12:07:22;;;;;;;;;;;;;;;33.73;52.24;96724.38;5044699;28;20266;-88
2023/08/22 12:10:00;;;;;;;;;;;;;;;33.84;56.11;96735.41;5044838;28;20246;-89
2023/08/22 12:12:26;;;;;;;;;;;;;;;33.94;54.88;96723.94;5044333;28;19948;-73
2023/08/22 12:14:52;;;;;;;;;;;;;;;34.10;55.83;96731.16;5044373;28;19957;-91
2023/08/22 12:17:18;;;;;;;;;;;;;;;34.04;54.02;96729.91;5044628;28;20124;-90
2023/08/22 12:19:44;;;;;;;;;;;;;;;33.85;53.96;96720.69;5044167;28;19962;-89
2023/08/22 12:22:10;;;;;;;;;;;;;;;33.83;56.29;96733.88;5044604;28;19961;-90
2023/08/22 12:24:36;;;;;;;;;;;;;;;33.95;54.35;96716.53;5044461;28;19957;-90
2023/08/22 12:27:02;;;;;;;;;;;;;;;34.13;53.81;96720.38;5044568;28;19956;-89
2023/08/22 12:29:28;;;;;;;;;;;;;;;34.26;52.06;96712.00;5044670;28;20249;-79
2023/08/22 12:31:54;;;;;;;;;;;;;;;34.41;53.75;96724.66;5044577;28;19969;-72
2023/08/22 12:34:20;;;;;;;;;;;;;;;34.61;56.10;96730.78;5044444;28;19961;-73
2023/08/22 12:36:45;;;;;;;;;;;;;;;34.78;52.96;96709.63;5044449;28;19942;-72
2023/08/22 12:39:12;;;;;;;;;;;;;;;34.80;54.38;96723.63;5044342;28;19964;-73
2023/08/22 12:41:38;;;;;;;;;;;;;;;34.88;53.26;96717.94;5044029;28;19988;-72